sensor_id;sensor_type;location;lat;lon;timestamp;P1;durP1;ratioP1;P2;durP2;ratioP2
16957;SDS011;8595;52.542;11.974;2022-07-12T00:01:40;4.63;;;1.90;;
16957;SDS011;8595;52.542;11.974;2022-07-12T00:04:07;3.50;;;2.25;;
16957;SDS011;8595;52.542;11.974;2022-07-12T00:06:34;2.03;;;1.58;;
16957;SDS011;8595;52.542;11.974;2022-07-12T00:09:00;2.42;;;1.80;;
16957;SDS011;8595;52.542;11.974;2022-07-12T00:11:27;3.28;;;1.98;;
16957;SDS011;8595;52.542;11.974;2022-07-12T00:13:54;5.75;;;1.83;;
16957;SDS011;8595;52.542;11.974;2022-07-12T00:16:20;3.33;;;1.90;;
16957;SDS011;8595;52.542;11.974;2022-07-12T00:18:49;2.90;;;1.90;;
16957;SDS011;8595;52.542;11.974;2022-07-12T00:21:15;2.42;;;2.22;;
16957;SDS011;8595;52.542;11.974;2022-07-12T00:23:42;2.55;;;2.00;;
16957;SDS011;8595;52.542;11.974;2022-07-12T00:26:09;3.15;;;2.17;;
16957;SDS011;8595;52.542;11.974;2022-07-12T00:28:35;5.30;;;2.10;;
16957;SDS011;8595;52.542;11.974;2022-07-12T00:31:02;1.92;;;1.65;;
16957;SDS011;8595;52.542;11.974;2022-07-12T00:33:30;2.28;;;2.08;;
16957;SDS011;8595;52.542;11.974;2022-07-12T00:35:58;5.10;;;2.13;;
16957;SDS011;8595;52.542;11.974;2022-07-12T00:38:25;2.00;;;1.83;;
16957;SDS011;8595;52.542;11.974;2022-07-12T00:40:51;2.22;;;1.98;;
16957;SDS011;8595;52.542;11.974;2022-07-12T00:43:18;4.82;;;2.25;;
16957;SDS011;8595;52.542;11.974;2022-07-12T00:45:45;2.78;;;2.00;;
16957;SDS011;8595;52.542;11.974;2022-07-12T00:48:12;3.13;;;2.10;;
16957;SDS011;8595;52.542;11.974;2022-07-12T00:50:39;2.65;;;2.15;;
16957;SDS011;8595;52.542;11.974;2022-07-12T00:53:07;3.83;;;2.00;;
16957;SDS011;8595;52.542;11.974;2022-07-12T00:55:35;3.22;;;2.05;;
16957;SDS011;8595;52.542;11.974;2022-07-12T00:58:02;3.38;;;2.13;;
16957;SDS011;8595;52.542;11.974;2022-07-12T01:00:29;3.92;;;2.00;;
16957;SDS011;8595;52.542;11.974;2022-07-12T01:02:56;2.50;;;2.05;;
16957;SDS011;8595;52.542;11.974;2022-07-12T01:05:24;3.15;;;2.03;;
16957;SDS011;8595;52.542;11.974;2022-07-12T01:07:52;3.42;;;2.25;;
16957;SDS011;8595;52.542;11.974;2022-07-12T01:10:21;3.17;;;2.10;;
16957;SDS011;8595;52.542;11.974;2022-07-12T01:12:48;3.72;;;2.05;;
16957;SDS011;8595;52.542;11.974;2022-07-12T01:15:15;3.17;;;2.15;;
16957;SDS011;8595;52.542;11.974;2022-07-12T01:17:43;4.07;;;2.00;;
16957;SDS011;8595;52.542;11.974;2022-07-12T01:20:10;3.25;;;2.53;;
16957;SDS011;8595;52.542;11.974;2022-07-12T01:22:39;2.80;;;2.25;;
16957;SDS011;8595;52.542;11.974;2022-07-12T01:25:09;3.25;;;2.45;;
16957;SDS011;8595;52.542;11.974;2022-07-12T01:27:37;4.25;;;2.45;;
16957;SDS011;8595;52.542;11.974;2022-07-12T01:30:04;3.15;;;2.60;;
16957;SDS011;8595;52.542;11.974;2022-07-12T01:32:31;3.20;;;2.50;;
16957;SDS011;8595;52.542;11.974;2022-07-12T01:35:00;4.18;;;2.40;;
16957;SDS011;8595;52.542;11.974;2022-07-12T01:37:30;3.25;;;2.53;;
16957;SDS011;8595;52.542;11.974;2022-07-12T01:39:59;3.45;;;2.28;;
16957;SDS011;8595;52.542;11.974;2022-07-12T01:42:28;2.55;;;2.35;;
16957;SDS011;8595;52.542;11.974;2022-07-12T01:44:56;5.25;;;2.53;;
16957;SDS011;8595;52.542;11.974;2022-07-12T01:47:24;4.78;;;2.95;;
16957;SDS011;8595;52.542;11.974;2022-07-12T01:49:53;2.78;;;2.58;;
16957;SDS011;8595;52.542;11.974;2022-07-12T01:52:20;3.40;;;2.53;;
16957;SDS011;8595;52.542;11.974;2022-07-12T01:54:47;3.10;;;2.80;;
16957;SDS011;8595;52.542;11.974;2022-07-12T01:57:14;2.88;;;2.67;;
16957;SDS011;8595;52.542;11.974;2022-07-12T01:59:42;3.95;;;2.40;;
16957;SDS011;8595;52.542;11.974;2022-07-12T02:02:09;3.03;;;2.40;;
16957;SDS011;8595;52.542;11.974;2022-07-12T02:04:36;3.15;;;2.63;;
16957;SDS011;8595;52.542;11.974;2022-07-12T02:07:03;2.63;;;2.40;;
16957;SDS011;8595;52.542;11.974;2022-07-12T02:09:30;5.82;;;2.65;;
16957;SDS011;8595;52.542;11.974;2022-07-12T02:11:57;3.10;;;2.80;;
16957;SDS011;8595;52.542;11.974;2022-07-12T02:14:24;2.88;;;2.67;;
16957;SDS011;8595;52.542;11.974;2022-07-12T02:16:53;3.80;;;3.25;;
16957;SDS011;8595;52.542;11.974;2022-07-12T02:19:19;4.90;;;2.90;;
16957;SDS011;8595;52.542;11.974;2022-07-12T02:21:46;3.35;;;2.58;;
16957;SDS011;8595;52.542;11.974;2022-07-12T02:24:13;5.53;;;3.05;;
16957;SDS011;8595;52.542;11.974;2022-07-12T02:26:39;3.95;;;3.20;;
16957;SDS011;8595;52.542;11.974;2022-07-12T02:29:06;4.35;;;3.38;;
16957;SDS011;8595;52.542;11.974;2022-07-12T02:31:33;3.85;;;3.45;;
16957;SDS011;8595;52.542;11.974;2022-07-12T02:34:01;3.58;;;3.25;;
16957;SDS011;8595;52.542;11.974;2022-07-12T02:36:27;4.80;;;3.58;;
16957;SDS011;8595;52.542;11.974;2022-07-12T02:38:54;3.15;;;2.85;;
16957;SDS011;8595;52.542;11.974;2022-07-12T02:41:21;4.07;;;3.78;;
16957;SDS011;8595;52.542;11.974;2022-07-12T02:43:48;4.18;;;3.55;;
16957;SDS011;8595;52.542;11.974;2022-07-12T02:46:14;4.93;;;3.20;;
16957;SDS011;8595;52.542;11.974;2022-07-12T02:48:42;5.10;;;3.78;;
16957;SDS011;8595;52.542;11.974;2022-07-12T02:51:10;5.57;;;3.75;;
16957;SDS011;8595;52.542;11.974;2022-07-12T02:53:36;4.05;;;3.28;;
16957;SDS011;8595;52.542;11.974;2022-07-12T02:56:04;4.47;;;3.70;;
16957;SDS011;8595;52.542;11.974;2022-07-12T02:58:31;3.80;;;3.50;;
16957;SDS011;8595;52.542;11.974;2022-07-12T03:00:57;3.65;;;3.17;;
16957;SDS011;8595;52.542;11.974;2022-07-12T03:03:24;3.97;;;3.58;;
16957;SDS011;8595;52.542;11.974;2022-07-12T03:05:51;6.10;;;4.10;;
16957;SDS011;8595;52.542;11.974;2022-07-12T03:08:19;4.97;;;3.70;;
16957;SDS011;8595;52.542;11.974;2022-07-12T03:10:45;4.55;;;4.15;;
16957;SDS011;8595;52.542;11.974;2022-07-12T03:13:12;4.50;;;3.75;;
16957;SDS011;8595;52.542;11.974;2022-07-12T03:15:39;5.30;;;4.80;;
16957;SDS011;8595;52.542;11.974;2022-07-12T03:18:06;4.72;;;4.22;;
16957;SDS011;8595;52.542;11.974;2022-07-12T03:20:32;6.78;;;4.57;;
16957;SDS011;8595;52.542;11.974;2022-07-12T03:22:59;14.15;;;4.85;;
16957;SDS011;8595;52.542;11.974;2022-07-12T03:25:27;5.78;;;5.28;;
16957;SDS011;8595;52.542;11.974;2022-07-12T03:27:53;6.88;;;6.25;;
16957;SDS011;8595;52.542;11.974;2022-07-12T03:30:20;5.32;;;4.82;;
16957;SDS011;8595;52.542;11.974;2022-07-12T03:32:47;5.70;;;5.20;;
16957;SDS011;8595;52.542;11.974;2022-07-12T03:35:14;6.32;;;5.72;;
16957;SDS011;8595;52.542;11.974;2022-07-12T03:37:41;6.75;;;5.13;;
16957;SDS011;8595;52.542;11.974;2022-07-12T03:40:09;6.18;;;5.57;;
16957;SDS011;8595;52.542;11.974;2022-07-12T03:42:38;5.38;;;4.88;;
16957;SDS011;8595;52.542;11.974;2022-07-12T03:45:05;6.78;;;5.72;;
16957;SDS011;8595;52.542;11.974;2022-07-12T03:47:32;5.80;;;5.03;;
16957;SDS011;8595;52.542;11.974;2022-07-12T03:50:01;6.18;;;5.38;;
16957;SDS011;8595;52.542;11.974;2022-07-12T03:52:29;5.28;;;4.78;;
16957;SDS011;8595;52.542;11.974;2022-07-12T03:54:57;6.18;;;5.13;;
16957;SDS011;8595;52.542;11.974;2022-07-12T03:57:23;6.88;;;5.75;;
16957;SDS011;8595;52.542;11.974;2022-07-12T03:59:52;5.60;;;4.68;;
16957;SDS011;8595;52.542;11.974;2022-07-12T04:02:19;5.55;;;5.03;;
16957;SDS011;8595;52.542;11.974;2022-07-12T04:04:45;6.00;;;5.40;;
16957;SDS011;8595;52.542;11.974;2022-07-12T04:07:12;5.95;;;5.43;;
16957;SDS011;8595;52.542;11.974;2022-07-12T04:09:39;6.25;;;5.40;;
16957;SDS011;8595;52.542;11.974;2022-07-12T04:12:06;5.15;;;4.72;;
16957;SDS011;8595;52.542;11.974;2022-07-12T04:14:34;6.03;;;5.25;;
16957;SDS011;8595;52.542;11.974;2022-07-12T04:17:02;7.43;;;5.43;;
16957;SDS011;8595;52.542;11.974;2022-07-12T04:19:30;4.88;;;4.47;;
16957;SDS011;8595;52.542;11.974;2022-07-12T04:21:57;5.35;;;4.80;;
16957;SDS011;8595;52.542;11.974;2022-07-12T04:24:23;7.07;;;5.22;;
16957;SDS011;8595;52.542;11.974;2022-07-12T04:26:50;5.93;;;5.28;;
16957;SDS011;8595;52.542;11.974;2022-07-12T04:29:17;8.63;;;5.60;;
16957;SDS011;8595;52.542;11.974;2022-07-12T04:31:44;7.97;;;6.20;;
16957;SDS011;8595;52.542;11.974;2022-07-12T04:34:12;5.72;;;5.22;;
16957;SDS011;8595;52.542;11.974;2022-07-12T04:36:42;5.80;;;5.22;;
16957;SDS011;8595;52.542;11.974;2022-07-12T04:39:09;5.97;;;5.38;;
16957;SDS011;8595;52.542;11.974;2022-07-12T04:41:35;7.63;;;6.50;;
16957;SDS011;8595;52.542;11.974;2022-07-12T04:44:02;7.35;;;6.75;;
16957;SDS011;8595;52.542;11.974;2022-07-12T04:46:29;7.28;;;6.57;;
16957;SDS011;8595;52.542;11.974;2022-07-12T04:48:57;6.38;;;5.88;;
16957;SDS011;8595;52.542;11.974;2022-07-12T04:51:25;6.32;;;5.72;;
16957;SDS011;8595;52.542;11.974;2022-07-12T04:53:52;5.88;;;5.32;;
16957;SDS011;8595;52.542;11.974;2022-07-12T04:56:19;7.55;;;6.35;;
16957;SDS011;8595;52.542;11.974;2022-07-12T04:58:46;6.45;;;5.72;;
16957;SDS011;8595;52.542;11.974;2022-07-12T05:01:13;5.72;;;5.13;;
16957;SDS011;8595;52.542;11.974;2022-07-12T05:03:40;7.03;;;5.53;;
16957;SDS011;8595;52.542;11.974;2022-07-12T05:06:06;7.45;;;5.70;;
16957;SDS011;8595;52.542;11.974;2022-07-12T05:08:34;6.72;;;6.05;;
16957;SDS011;8595;52.542;11.974;2022-07-12T05:11:01;6.85;;;6.18;;
16957;SDS011;8595;52.542;11.974;2022-07-12T05:13:28;8.35;;;6.38;;
16957;SDS011;8595;52.542;11.974;2022-07-12T05:15:55;7.03;;;5.55;;
16957;SDS011;8595;52.542;11.974;2022-07-12T05:18:21;8.68;;;5.63;;
16957;SDS011;8595;52.542;11.974;2022-07-12T05:20:48;5.90;;;5.20;;
16957;SDS011;8595;52.542;11.974;2022-07-12T05:23:15;6.53;;;5.82;;
16957;SDS011;8595;52.542;11.974;2022-07-12T05:25:43;8.27;;;5.55;;
16957;SDS011;8595;52.542;11.974;2022-07-12T05:28:09;7.60;;;6.40;;
16957;SDS011;8595;52.542;11.974;2022-07-12T05:30:36;6.35;;;5.72;;
16957;SDS011;8595;52.542;11.974;2022-07-12T05:33:03;6.25;;;5.28;;
16957;SDS011;8595;52.542;11.974;2022-07-12T05:35:29;6.25;;;5.65;;
16957;SDS011;8595;52.542;11.974;2022-07-12T05:37:56;7.15;;;5.93;;
16957;SDS011;8595;52.542;11.974;2022-07-12T05:40:23;5.97;;;5.32;;
16957;SDS011;8595;52.542;11.974;2022-07-12T05:42:51;8.25;;;6.05;;
16957;SDS011;8595;52.542;11.974;2022-07-12T05:45:18;7.28;;;5.90;;
16957;SDS011;8595;52.542;11.974;2022-07-12T05:47:45;6.38;;;4.40;;
16957;SDS011;8595;52.542;11.974;2022-07-12T05:50:11;6.88;;;5.55;;
16957;SDS011;8595;52.542;11.974;2022-07-12T05:52:38;5.72;;;5.22;;
16957;SDS011;8595;52.542;11.974;2022-07-12T05:55:22;5.43;;;4.93;;
16957;SDS011;8595;52.542;11.974;2022-07-12T05:57:49;6.07;;;5.43;;
16957;SDS011;8595;52.542;11.974;2022-07-12T06:00:18;7.20;;;5.68;;
16957;SDS011;8595;52.542;11.974;2022-07-12T06:02:44;6.97;;;5.55;;
16957;SDS011;8595;52.542;11.974;2022-07-12T06:05:11;5.80;;;5.20;;
16957;SDS011;8595;52.542;11.974;2022-07-12T06:07:38;7.60;;;4.55;;
16957;SDS011;8595;52.542;11.974;2022-07-12T06:10:05;5.18;;;4.68;;
16957;SDS011;8595;52.542;11.974;2022-07-12T06:12:32;8.60;;;4.78;;
16957;SDS011;8595;52.542;11.974;2022-07-12T06:14:59;4.82;;;4.43;;
16957;SDS011;8595;52.542;11.974;2022-07-12T06:17:27;5.90;;;4.53;;
16957;SDS011;8595;52.542;11.974;2022-07-12T06:19:53;5.63;;;5.03;;
16957;SDS011;8595;52.542;11.974;2022-07-12T06:22:20;7.18;;;5.03;;
16957;SDS011;8595;52.542;11.974;2022-07-12T06:24:47;5.35;;;4.13;;
16957;SDS011;8595;52.542;11.974;2022-07-12T06:27:14;4.82;;;4.00;;
16957;SDS011;8595;52.542;11.974;2022-07-12T06:29:40;5.70;;;5.20;;
16957;SDS011;8595;52.542;11.974;2022-07-12T06:32:12;6.45;;;4.88;;
16957;SDS011;8595;52.542;11.974;2022-07-12T06:34:40;6.95;;;5.22;;
16957;SDS011;8595;52.542;11.974;2022-07-12T06:37:09;6.95;;;5.00;;
16957;SDS011;8595;52.542;11.974;2022-07-12T06:39:38;4.57;;;4.18;;
16957;SDS011;8595;52.542;11.974;2022-07-12T06:42:05;5.95;;;3.92;;
16957;SDS011;8595;52.542;11.974;2022-07-12T06:44:32;8.98;;;5.57;;
16957;SDS011;8595;52.542;11.974;2022-07-12T06:47:00;5.90;;;4.43;;
16957;SDS011;8595;52.542;11.974;2022-07-12T06:49:27;5.63;;;5.03;;
16957;SDS011;8595;52.542;11.974;2022-07-12T06:51:56;6.90;;;5.20;;
16957;SDS011;8595;52.542;11.974;2022-07-12T06:54:25;4.82;;;4.35;;
16957;SDS011;8595;52.542;11.974;2022-07-12T06:56:52;6.82;;;4.25;;
16957;SDS011;8595;52.542;11.974;2022-07-12T06:59:19;5.07;;;4.13;;
16957;SDS011;8595;52.542;11.974;2022-07-12T07:01:46;4.28;;;3.83;;
16957;SDS011;8595;52.542;11.974;2022-07-12T07:04:13;5.30;;;4.75;;
16957;SDS011;8595;52.542;11.974;2022-07-12T07:06:40;5.53;;;4.13;;
16957;SDS011;8595;52.542;11.974;2022-07-12T07:09:08;3.47;;;3.17;;
16957;SDS011;8595;52.542;11.974;2022-07-12T07:11:36;6.38;;;3.88;;
16957;SDS011;8595;52.542;11.974;2022-07-12T07:14:04;6.85;;;4.00;;
16957;SDS011;8595;52.542;11.974;2022-07-12T07:16:31;5.43;;;3.92;;
16957;SDS011;8595;52.542;11.974;2022-07-12T07:18:58;8.00;;;3.75;;
16957;SDS011;8595;52.542;11.974;2022-07-12T07:21:25;6.30;;;4.07;;
16957;SDS011;8595;52.542;11.974;2022-07-12T07:23:52;6.88;;;4.10;;
16957;SDS011;8595;52.542;11.974;2022-07-12T07:26:20;4.30;;;3.60;;
16957;SDS011;8595;52.542;11.974;2022-07-12T07:28:46;4.18;;;3.78;;
16957;SDS011;8595;52.542;11.974;2022-07-12T07:31:33;4.60;;;3.15;;
16957;SDS011;8595;52.542;11.974;2022-07-12T07:33:59;4.15;;;2.95;;
16957;SDS011;8595;52.542;11.974;2022-07-12T07:36:26;4.10;;;3.50;;
16957;SDS011;8595;52.542;11.974;2022-07-12T07:38:53;6.65;;;3.83;;
16957;SDS011;8595;52.542;11.974;2022-07-12T07:41:21;4.78;;;3.53;;
16957;SDS011;8595;52.542;11.974;2022-07-12T07:43:48;5.22;;;3.13;;
16957;SDS011;8595;52.542;11.974;2022-07-12T07:46:15;5.53;;;3.20;;
16957;SDS011;8595;52.542;11.974;2022-07-12T07:48:41;2.95;;;2.65;;
16957;SDS011;8595;52.542;11.974;2022-07-12T07:51:08;4.30;;;3.58;;
16957;SDS011;8595;52.542;11.974;2022-07-12T07:53:35;4.38;;;2.88;;
16957;SDS011;8595;52.542;11.974;2022-07-12T07:56:02;4.07;;;2.90;;
16957;SDS011;8595;52.542;11.974;2022-07-12T07:58:30;5.07;;;3.10;;
16957;SDS011;8595;52.542;11.974;2022-07-12T08:00:57;6.40;;;2.80;;
16957;SDS011;8595;52.542;11.974;2022-07-12T08:03:24;4.10;;;3.13;;
16957;SDS011;8595;52.542;11.974;2022-07-12T08:05:50;4.47;;;2.95;;
16957;SDS011;8595;52.542;11.974;2022-07-12T08:08:18;4.68;;;3.00;;
16957;SDS011;8595;52.542;11.974;2022-07-12T08:10:45;6.30;;;2.40;;
16957;SDS011;8595;52.542;11.974;2022-07-12T08:13:14;2.90;;;2.30;;
16957;SDS011;8595;52.542;11.974;2022-07-12T08:15:42;3.80;;;2.35;;
16957;SDS011;8595;52.542;11.974;2022-07-12T08:18:09;5.00;;;2.28;;
16957;SDS011;8595;52.542;11.974;2022-07-12T08:20:35;5.15;;;2.20;;
16957;SDS011;8595;52.542;11.974;2022-07-12T08:23:02;6.55;;;2.40;;
16957;SDS011;8595;52.542;11.974;2022-07-12T08:25:29;4.30;;;2.50;;
16957;SDS011;8595;52.542;11.974;2022-07-12T08:27:56;4.20;;;2.13;;
16957;SDS011;8595;52.542;11.974;2022-07-12T08:30:23;4.40;;;2.05;;
16957;SDS011;8595;52.542;11.974;2022-07-12T08:32:52;3.17;;;2.25;;
16957;SDS011;8595;52.542;11.974;2022-07-12T08:35:20;3.20;;;2.03;;
16957;SDS011;8595;52.542;11.974;2022-07-12T08:37:47;4.25;;;2.70;;
16957;SDS011;8595;52.542;11.974;2022-07-12T08:40:13;2.78;;;2.30;;
16957;SDS011;8595;52.542;11.974;2022-07-12T08:42:40;4.82;;;2.08;;
16957;SDS011;8595;52.542;11.974;2022-07-12T08:45:08;5.53;;;2.33;;
16957;SDS011;8595;52.542;11.974;2022-07-12T08:47:36;4.35;;;1.95;;
16957;SDS011;8595;52.542;11.974;2022-07-12T08:50:10;3.25;;;2.20;;
16957;SDS011;8595;52.542;11.974;2022-07-12T08:52:39;2.35;;;1.98;;
16957;SDS011;8595;52.542;11.974;2022-07-12T08:55:17;2.90;;;2.50;;
16957;SDS011;8595;52.542;11.974;2022-07-12T08:57:48;2.65;;;2.08;;
16957;SDS011;8595;52.542;11.974;2022-07-12T09:00:15;2.63;;;1.83;;
16957;SDS011;8595;52.542;11.974;2022-07-12T09:02:43;4.93;;;2.35;;
16957;SDS011;8595;52.542;11.974;2022-07-12T09:05:13;4.60;;;2.10;;
16957;SDS011;8595;52.542;11.974;2022-07-12T09:07:41;2.90;;;1.63;;
16957;SDS011;8595;52.542;11.974;2022-07-12T09:10:09;1.67;;;1.58;;
16957;SDS011;8595;52.542;11.974;2022-07-12T09:12:37;4.50;;;1.90;;
16957;SDS011;8595;52.542;11.974;2022-07-12T09:15:15;3.15;;;1.70;;
16957;SDS011;8595;52.542;11.974;2022-07-12T09:17:54;4.47;;;1.60;;
16957;SDS011;8595;52.542;11.974;2022-07-12T09:20:25;2.35;;;1.40;;
16957;SDS011;8595;52.542;11.974;2022-07-12T09:22:53;6.47;;;1.50;;
16957;SDS011;8595;52.542;11.974;2022-07-12T09:25:21;2.35;;;1.38;;
16957;SDS011;8595;52.542;11.974;2022-07-12T09:27:49;3.60;;;1.55;;
16957;SDS011;8595;52.542;11.974;2022-07-12T09:30:18;2.17;;;1.27;;
16957;SDS011;8595;52.542;11.974;2022-07-12T09:32:48;4.00;;;1.73;;
16957;SDS011;8595;52.542;11.974;2022-07-12T09:35:38;4.05;;;1.50;;
16957;SDS011;8595;52.542;11.974;2022-07-12T09:38:23;2.08;;;1.38;;
16957;SDS011;8595;52.542;11.974;2022-07-12T09:40:51;3.03;;;1.30;;
16957;SDS011;8595;52.542;11.974;2022-07-12T09:43:19;2.80;;;1.30;;
16957;SDS011;8595;52.542;11.974;2022-07-12T09:45:47;1.88;;;1.30;;
16957;SDS011;8595;52.542;11.974;2022-07-12T09:48:16;3.05;;;1.23;;
16957;SDS011;8595;52.542;11.974;2022-07-12T09:50:46;6.63;;;1.52;;
16957;SDS011;8595;52.542;11.974;2022-07-12T09:53:16;8.48;;;1.20;;
16957;SDS011;8595;52.542;11.974;2022-07-12T09:55:50;1.50;;;1.00;;
16957;SDS011;8595;52.542;11.974;2022-07-12T09:58:20;2.20;;;1.33;;
16957;SDS011;8595;52.542;11.974;2022-07-12T10:00:50;3.42;;;1.40;;
16957;SDS011;8595;52.542;11.974;2022-07-12T10:03:20;3.78;;;1.30;;
16957;SDS011;8595;52.542;11.974;2022-07-12T10:05:50;2.42;;;1.15;;
16957;SDS011;8595;52.542;11.974;2022-07-12T10:08:19;2.53;;;1.20;;
16957;SDS011;8595;52.542;11.974;2022-07-12T10:10:47;1.73;;;1.13;;
16957;SDS011;8595;52.542;11.974;2022-07-12T10:13:15;2.45;;;1.55;;
16957;SDS011;8595;52.542;11.974;2022-07-12T10:15:44;3.03;;;1.30;;
16957;SDS011;8595;52.542;11.974;2022-07-12T10:18:16;1.83;;;1.20;;
16957;SDS011;8595;52.542;11.974;2022-07-12T10:20:44;1.20;;;1.10;;
16957;SDS011;8595;52.542;11.974;2022-07-12T10:26:00;1.95;;;1.10;;
16957;SDS011;8595;52.542;11.974;2022-07-12T10:28:59;3.53;;;0.75;;
16957;SDS011;8595;52.542;11.974;2022-07-12T10:31:27;6.25;;;1.15;;
16957;SDS011;8595;52.542;11.974;2022-07-12T10:33:59;3.92;;;1.05;;
16957;SDS011;8595;52.542;11.974;2022-07-12T10:43:11;3.25;;;1.25;;
16957;SDS011;8595;52.542;11.974;2022-07-12T10:45:41;2.05;;;0.95;;
16957;SDS011;8595;52.542;11.974;2022-07-12T10:48:09;4.50;;;1.13;;
16957;SDS011;8595;52.542;11.974;2022-07-12T10:50:49;2.45;;;1.15;;
16957;SDS011;8595;52.542;11.974;2022-07-12T10:53:22;1.17;;;0.82;;
16957;SDS011;8595;52.542;11.974;2022-07-12T10:56:08;3.17;;;1.20;;
16957;SDS011;8595;52.542;11.974;2022-07-12T10:58:37;3.63;;;1.13;;
16957;SDS011;8595;52.542;11.974;2022-07-12T11:01:06;1.63;;;0.93;;
16957;SDS011;8595;52.542;11.974;2022-07-12T11:03:38;2.63;;;0.90;;
16957;SDS011;8595;52.542;11.974;2022-07-12T11:06:08;1.00;;;0.90;;
16957;SDS011;8595;52.542;11.974;2022-07-12T11:08:48;1.00;;;0.98;;
16957;SDS011;8595;52.542;11.974;2022-07-12T11:11:21;3.55;;;1.00;;
16957;SDS011;8595;52.542;11.974;2022-07-12T11:13:50;2.90;;;1.10;;
16957;SDS011;8595;52.542;11.974;2022-07-12T11:16:18;4.03;;;0.90;;
16957;SDS011;8595;52.542;11.974;2022-07-12T11:18:45;1.58;;;1.30;;
16957;SDS011;8595;52.542;11.974;2022-07-12T11:21:11;2.10;;;1.27;;
16957;SDS011;8595;52.542;11.974;2022-07-12T11:23:38;1.17;;;0.65;;
16957;SDS011;8595;52.542;11.974;2022-07-12T11:26:07;1.88;;;1.10;;
16957;SDS011;8595;52.542;11.974;2022-07-12T11:28:36;10.90;;;0.90;;
16957;SDS011;8595;52.542;11.974;2022-07-12T11:31:03;2.40;;;0.80;;
16957;SDS011;8595;52.542;11.974;2022-07-12T11:33:32;0.95;;;0.90;;
16957;SDS011;8595;52.542;11.974;2022-07-12T11:36:00;1.02;;;0.88;;
16957;SDS011;8595;52.542;11.974;2022-07-12T11:38:29;1.00;;;0.60;;
16957;SDS011;8595;52.542;11.974;2022-07-12T11:40:56;1.75;;;0.88;;
16957;SDS011;8595;52.542;11.974;2022-07-12T11:43:24;1.42;;;0.70;;
16957;SDS011;8595;52.542;11.974;2022-07-12T11:45:53;1.42;;;0.63;;
16957;SDS011;8595;52.542;11.974;2022-07-12T11:48:20;0.70;;;0.70;;
16957;SDS011;8595;52.542;11.974;2022-07-12T11:50:49;1.15;;;0.70;;
16957;SDS011;8595;52.542;11.974;2022-07-12T11:53:17;1.58;;;0.73;;
16957;SDS011;8595;52.542;11.974;2022-07-12T11:55:45;4.35;;;1.10;;
16957;SDS011;8595;52.542;11.974;2022-07-12T11:58:14;2.67;;;1.00;;
16957;SDS011;8595;52.542;11.974;2022-07-12T12:00:41;2.40;;;0.80;;
16957;SDS011;8595;52.542;11.974;2022-07-12T12:03:11;1.38;;;0.90;;
16957;SDS011;8595;52.542;11.974;2022-07-12T12:05:38;2.50;;;0.80;;
16957;SDS011;8595;52.542;11.974;2022-07-12T12:08:06;2.35;;;1.10;;
16957;SDS011;8595;52.542;11.974;2022-07-12T12:10:35;1.33;;;1.05;;
16957;SDS011;8595;52.542;11.974;2022-07-12T12:13:02;1.05;;;0.95;;
16957;SDS011;8595;52.542;11.974;2022-07-12T12:15:30;1.67;;;0.98;;
16957;SDS011;8595;52.542;11.974;2022-07-12T12:17:59;1.88;;;0.90;;
16957;SDS011;8595;52.542;11.974;2022-07-12T12:20:29;1.45;;;0.77;;
16957;SDS011;8595;52.542;11.974;2022-07-12T12:22:56;1.55;;;0.73;;
16957;SDS011;8595;52.542;11.974;2022-07-12T12:25:24;1.10;;;0.80;;
16957;SDS011;8595;52.542;11.974;2022-07-12T12:27:54;2.25;;;0.77;;
16957;SDS011;8595;52.542;11.974;2022-07-12T12:30:21;2.03;;;1.10;;
16957;SDS011;8595;52.542;11.974;2022-07-12T12:32:49;1.23;;;0.80;;
16957;SDS011;8595;52.542;11.974;2022-07-12T12:35:18;2.35;;;0.70;;
16957;SDS011;8595;52.542;11.974;2022-07-12T12:37:53;4.00;;;1.00;;
16957;SDS011;8595;52.542;11.974;2022-07-12T12:40:22;1.02;;;0.70;;
16957;SDS011;8595;52.542;11.974;2022-07-12T12:42:50;2.08;;;0.60;;
16957;SDS011;8595;52.542;11.974;2022-07-12T12:45:18;2.58;;;0.80;;
16957;SDS011;8595;52.542;11.974;2022-07-12T12:47:52;2.33;;;1.20;;
16957;SDS011;8595;52.542;11.974;2022-07-12T12:53:07;1.23;;;1.00;;
16957;SDS011;8595;52.542;11.974;2022-07-12T12:55:35;2.60;;;0.90;;
16957;SDS011;8595;52.542;11.974;2022-07-12T12:58:01;1.13;;;1.02;;
16957;SDS011;8595;52.542;11.974;2022-07-12T13:00:28;1.35;;;1.13;;
16957;SDS011;8595;52.542;11.974;2022-07-12T13:02:55;4.35;;;1.10;;
16957;SDS011;8595;52.542;11.974;2022-07-12T13:05:24;1.80;;;1.20;;
16957;SDS011;8595;52.542;11.974;2022-07-12T13:07:51;1.33;;;1.00;;
16957;SDS011;8595;52.542;11.974;2022-07-12T13:10:19;0.85;;;0.70;;
16957;SDS011;8595;52.542;11.974;2022-07-12T13:12:46;2.65;;;0.82;;
16957;SDS011;8595;52.542;11.974;2022-07-12T13:15:13;1.90;;;0.90;;
16957;SDS011;8595;52.542;11.974;2022-07-12T13:17:40;0.90;;;0.80;;
16957;SDS011;8595;52.542;11.974;2022-07-12T13:20:07;1.88;;;1.05;;
16957;SDS011;8595;52.542;11.974;2022-07-12T13:22:34;1.60;;;0.90;;
16957;SDS011;8595;52.542;11.974;2022-07-12T13:25:02;3.05;;;0.93;;
16957;SDS011;8595;52.542;11.974;2022-07-12T13:27:32;1.10;;;0.90;;
16957;SDS011;8595;52.542;11.974;2022-07-12T13:29:59;0.77;;;0.77;;
16957;SDS011;8595;52.542;11.974;2022-07-12T13:32:26;2.28;;;0.70;;
16957;SDS011;8595;52.542;11.974;2022-07-12T13:34:52;0.98;;;0.73;;
16957;SDS011;8595;52.542;11.974;2022-07-12T13:37:19;3.45;;;0.80;;
16957;SDS011;8595;52.542;11.974;2022-07-12T13:39:46;0.95;;;0.75;;
16957;SDS011;8595;52.542;11.974;2022-07-12T13:42:31;1.40;;;0.70;;
16957;SDS011;8595;52.542;11.974;2022-07-12T13:44:58;0.70;;;0.70;;
16957;SDS011;8595;52.542;11.974;2022-07-12T13:47:25;1.25;;;0.80;;
16957;SDS011;8595;52.542;11.974;2022-07-12T13:49:53;1.77;;;0.80;;
16957;SDS011;8595;52.542;11.974;2022-07-12T13:52:20;1.42;;;0.60;;
16957;SDS011;8595;52.542;11.974;2022-07-12T13:54:47;1.17;;;1.08;;
16957;SDS011;8595;52.542;11.974;2022-07-12T13:57:13;0.98;;;0.77;;
16957;SDS011;8595;52.542;11.974;2022-07-12T13:59:42;0.60;;;0.57;;
16957;SDS011;8595;52.542;11.974;2022-07-12T14:02:09;1.10;;;0.77;;
16957;SDS011;8595;52.542;11.974;2022-07-12T14:04:37;0.90;;;0.80;;
16957;SDS011;8595;52.542;11.974;2022-07-12T14:07:04;1.27;;;1.00;;
16957;SDS011;8595;52.542;11.974;2022-07-12T14:09:31;0.77;;;0.77;;
16957;SDS011;8595;52.542;11.974;2022-07-12T14:11:57;0.73;;;0.73;;
16957;SDS011;8595;52.542;11.974;2022-07-12T14:14:26;1.35;;;0.90;;
16957;SDS011;8595;52.542;11.974;2022-07-12T14:17:15;1.15;;;0.88;;
16957;SDS011;8595;52.542;11.974;2022-07-12T14:19:42;2.00;;;0.70;;
16957;SDS011;8595;52.542;11.974;2022-07-12T14:22:08;1.27;;;0.70;;
16957;SDS011;8595;52.542;11.974;2022-07-12T14:24:35;0.70;;;0.70;;
16957;SDS011;8595;52.542;11.974;2022-07-12T14:27:02;1.15;;;0.60;;
16957;SDS011;8595;52.542;11.974;2022-07-12T14:29:31;1.25;;;0.90;;
16957;SDS011;8595;52.542;11.974;2022-07-12T14:31:57;1.00;;;0.70;;
16957;SDS011;8595;52.542;11.974;2022-07-12T14:34:27;2.50;;;0.95;;
16957;SDS011;8595;52.542;11.974;2022-07-12T14:36:54;1.45;;;0.88;;
16957;SDS011;8595;52.542;11.974;2022-07-12T14:39:21;1.20;;;0.70;;
16957;SDS011;8595;52.542;11.974;2022-07-12T14:41:48;1.50;;;0.80;;
16957;SDS011;8595;52.542;11.974;2022-07-12T14:44:14;1.75;;;1.10;;
16957;SDS011;8595;52.542;11.974;2022-07-12T14:46:42;0.75;;;0.73;;
16957;SDS011;8595;52.542;11.974;2022-07-12T14:49:09;4.10;;;0.80;;
16957;SDS011;8595;52.542;11.974;2022-07-12T14:51:37;0.73;;;0.70;;
16957;SDS011;8595;52.542;11.974;2022-07-12T14:54:04;2.05;;;0.77;;
16957;SDS011;8595;52.542;11.974;2022-07-12T14:56:30;2.20;;;0.75;;
16957;SDS011;8595;52.542;11.974;2022-07-12T14:58:57;0.90;;;0.90;;
16957;SDS011;8595;52.542;11.974;2022-07-12T15:01:24;1.45;;;0.98;;
16957;SDS011;8595;52.542;11.974;2022-07-12T15:03:51;1.50;;;0.80;;
16957;SDS011;8595;52.542;11.974;2022-07-12T15:06:18;1.00;;;0.90;;